createdAt,value
2018-04-07T00:02:02.768Z,8.68
2018-04-07T00:04:29.028Z,8.50
2018-04-07T00:06:55.290Z,8.43
2018-04-07T00:09:21.552Z,8.54
2018-04-07T00:11:47.792Z,8.50
2018-04-07T00:14:14.041Z,8.50
2018-04-07T00:16:40.296Z,8.58
2018-04-07T00:19:06.533Z,8.58
2018-04-07T00:21:32.788Z,8.72
2018-04-07T00:23:59.088Z,8.80
2018-04-07T00:26:25.342Z,8.94
2018-04-07T00:28:51.580Z,9.05
2018-04-07T00:31:17.837Z,9.12
2018-04-07T00:33:44.076Z,9.17
2018-04-07T00:36:10.340Z,9.28
2018-04-07T00:38:36.572Z,9.44
2018-04-07T00:41:02.809Z,9.56
2018-04-07T00:43:29.100Z,9.64
2018-04-07T00:45:55.341Z,9.81
2018-04-07T00:48:21.633Z,9.86
2018-04-07T00:50:47.865Z,9.89
2018-04-07T00:53:14.123Z,9.99
2018-04-07T00:55:40.386Z,10.03
2018-04-07T00:58:06.705Z,10.05
2018-04-07T01:00:32.980Z,10.17
2018-04-07T01:02:59.225Z,10.18
2018-04-07T01:05:25.515Z,10.21
2018-04-07T01:07:51.753Z,10.19
2018-04-07T01:10:18.021Z,10.26
2018-04-07T01:12:44.305Z,10.21
2018-04-07T01:15:10.553Z,10.22
2018-04-07T01:17:36.844Z,10.13
2018-04-07T01:20:03.125Z,10.03
2018-04-07T01:22:29.344Z,9.90
2018-04-07T01:24:55.608Z,9.93
2018-04-07T01:27:21.832Z,9.89
2018-04-07T01:29:48.113Z,9.93
2018-04-07T01:32:14.340Z,9.95
2018-04-07T01:34:40.626Z,9.96
2018-04-07T01:37:07.123Z,9.97
2018-04-07T01:39:33.401Z,10.00
2018-04-07T01:41:59.721Z,10.08
2018-04-07T01:44:25.983Z,10.08
2018-04-07T01:46:52.229Z,10.11
2018-04-07T01:49:18.500Z,10.09
2018-04-07T01:51:44.737Z,10.11
2018-04-07T01:54:10.995Z,10.15
2018-04-07T01:56:37.232Z,10.11
2018-04-07T01:59:03.484Z,10.12
2018-04-07T02:01:29.765Z,10.15
2018-04-07T02:03:56.021Z,10.14
2018-04-07T02:06:22.295Z,10.13
2018-04-07T02:08:48.520Z,10.18
2018-04-07T02:11:14.756Z,10.19
2018-04-07T02:13:41.008Z,10.15
2018-04-07T02:16:07.250Z,10.14
2018-04-07T02:18:33.500Z,10.16
2018-04-07T02:20:59.738Z,10.25
2018-04-07T02:23:25.977Z,10.26
2018-04-07T02:25:52.251Z,10.36
2018-04-07T02:28:18.489Z,10.33
2018-04-07T02:30:44.722Z,10.44
2018-04-07T02:33:11.021Z,10.38
2018-04-07T02:35:37.270Z,10.41
2018-04-07T02:38:03.506Z,10.37
2018-04-07T02:40:29.768Z,10.33
2018-04-07T02:42:56.017Z,10.35
2018-04-07T02:45:23.240Z,10.44
2018-04-07T02:47:49.505Z,10.48
2018-04-07T02:50:15.756Z,10.48
2018-04-07T02:52:42.023Z,10.43
2018-04-07T02:55:08.286Z,10.30
2018-04-07T02:57:34.536Z,10.22
2018-04-07T03:00:00.784Z,10.21
2018-04-07T03:02:27.042Z,10.26
2018-04-07T03:04:53.280Z,10.25
2018-04-07T03:07:19.507Z,10.28
2018-04-07T03:09:45.772Z,10.28
2018-04-07T03:12:12.024Z,10.25
2018-04-07T03:14:38.269Z,10.28
2018-04-07T03:17:04.549Z,10.23
2018-04-07T03:19:30.885Z,10.30
2018-04-07T03:21:57.121Z,10.26
2018-04-07T03:24:23.385Z,10.30
2018-04-07T03:26:49.633Z,10.29
2018-04-07T03:29:15.869Z,10.23
2018-04-07T03:31:42.198Z,10.23
2018-04-07T03:34:08.437Z,10.29
2018-04-07T03:36:34.673Z,10.25
2018-04-07T03:39:00.945Z,10.22
2018-04-07T03:41:27.209Z,10.16
2018-04-07T03:43:53.450Z,10.12
2018-04-07T03:46:19.757Z,10.12
2018-04-07T03:48:46.020Z,10.06
2018-04-07T03:51:12.304Z,10.12
2018-04-07T03:53:38.713Z,10.03
2018-04-07T03:56:04.960Z,10.10
2018-04-07T03:58:31.227Z,10.05
2018-04-07T04:00:57.532Z,10.04
2018-04-07T04:03:23.779Z,10.02
2018-04-07T04:05:50.125Z,9.95
2018-04-07T04:08:16.384Z,10.01
2018-04-07T04:10:42.619Z,10.08
2018-04-07T04:13:08.873Z,10.11
2018-04-07T04:15:35.141Z,10.04
2018-04-07T04:18:01.377Z,10.01
2018-04-07T04:20:27.677Z,10.02
2018-04-07T04:22:53.956Z,9.99
2018-04-07T04:25:20.208Z,9.91
2018-04-07T04:27:46.445Z,9.81
2018-04-07T04:30:12.721Z,9.75
2018-04-07T04:32:38.960Z,9.79
2018-04-07T04:35:05.206Z,9.72
2018-04-07T04:37:31.468Z,9.69
2018-04-07T04:39:57.697Z,9.64
2018-04-07T04:42:23.954Z,9.62
2018-04-07T04:44:50.225Z,9.42
2018-04-07T04:47:16.453Z,9.38
2018-04-07T04:49:42.713Z,9.39
2018-04-07T04:52:08.977Z,9.44
2018-04-07T04:54:35.213Z,9.55
2018-04-07T04:57:01.481Z,9.62
2018-04-07T04:59:27.754Z,9.66
2018-04-07T05:01:53.997Z,9.76
2018-04-07T05:04:20.260Z,9.82
2018-04-07T05:06:46.535Z,9.95
2018-04-07T05:09:12.784Z,9.93
2018-04-07T05:11:39.021Z,9.98
2018-04-07T05:14:05.289Z,9.99
2018-04-07T05:16:31.562Z,9.94
2018-04-07T05:18:57.808Z,10.05
2018-04-07T05:21:24.065Z,10.03
2018-04-07T05:23:50.300Z,10.10
2018-04-07T05:26:16.541Z,10.22
2018-04-07T05:28:42.891Z,10.29
2018-04-07T05:31:09.136Z,10.32
2018-04-07T05:33:35.365Z,10.45
2018-04-07T05:36:01.634Z,10.66
2018-04-07T05:38:27.917Z,10.79
2018-04-07T05:40:54.176Z,11.04
2018-04-07T05:43:20.457Z,11.25
2018-04-07T05:45:46.719Z,11.36
2018-04-07T05:48:13.008Z,11.53
2018-04-07T05:50:39.280Z,11.69
2018-04-07T05:53:05.578Z,11.85
2018-04-07T05:55:31.840Z,11.96
2018-04-07T05:57:58.104Z,12.03
2018-04-07T06:00:24.363Z,12.10
2018-04-07T06:02:50.618Z,12.23
2018-04-07T06:05:18.122Z,12.41
2018-04-07T06:07:44.432Z,12.51
2018-04-07T06:10:10.737Z,12.59
2018-04-07T06:12:37.221Z,12.65
2018-04-07T06:15:03.493Z,12.89
2018-04-07T06:17:29.777Z,13.10
2018-04-07T06:19:56.145Z,13.30
2018-04-07T06:22:22.476Z,13.40
2018-04-07T06:24:48.705Z,13.67
2018-04-07T06:27:15.100Z,13.89
2018-04-07T06:29:41.370Z,14.08
2018-04-07T06:32:07.630Z,14.32
2018-04-07T06:34:33.896Z,14.51
2018-04-07T06:37:00.146Z,14.65
2018-04-07T06:39:26.394Z,14.74
2018-04-07T06:41:52.771Z,14.98
2018-04-07T06:44:18.998Z,15.12
2018-04-07T06:46:45.282Z,15.20
2018-04-07T06:49:11.597Z,15.31
2018-04-07T06:51:37.836Z,15.42
2018-04-07T06:54:04.078Z,15.48
2018-04-07T06:56:30.361Z,15.58
2018-04-07T06:58:56.606Z,15.73
2018-04-07T07:01:22.868Z,16.09
2018-04-07T07:03:49.136Z,16.38
2018-04-07T07:06:15.381Z,16.37
2018-04-07T07:08:41.668Z,16.52
2018-04-07T07:11:08.025Z,16.80
2018-04-07T07:13:34.266Z,16.99
2018-04-07T07:16:00.516Z,17.10
2018-04-07T07:18:26.854Z,17.24
2018-04-07T07:20:53.142Z,17.25
2018-04-07T07:23:19.365Z,17.27
2018-04-07T07:25:45.761Z,17.27
2018-04-07T07:28:12.002Z,17.44
2018-04-07T07:30:38.276Z,17.83
2018-04-07T07:33:05.623Z,18.12
2018-04-07T07:35:31.971Z,18.31
2018-04-07T07:37:58.209Z,18.60
2018-04-07T07:40:24.509Z,18.86
2018-04-07T07:42:50.780Z,18.72
2018-04-07T07:45:17.018Z,18.44
2018-04-07T07:47:43.776Z,18.59
2018-04-07T07:50:10.001Z,18.77
2018-04-07T07:52:36.252Z,19.00
2018-04-07T07:55:02.581Z,19.44
2018-04-07T07:57:28.824Z,19.56
2018-04-07T07:59:55.066Z,19.75
2018-04-07T08:02:21.380Z,20.04
2018-04-07T08:04:47.682Z,20.49
2018-04-07T08:07:13.928Z,21.00
2018-04-07T08:09:40.250Z,21.80
2018-04-07T08:12:06.508Z,22.55
2018-04-07T08:14:32.788Z,22.60
2018-04-07T08:16:59.085Z,23.11
2018-04-07T08:19:25.332Z,23.65
2018-04-07T08:21:51.591Z,23.92
2018-04-07T08:24:17.881Z,24.51
2018-04-07T08:26:44.840Z,24.81
2018-04-07T08:29:12.380Z,25.00
2018-04-07T08:31:38.725Z,24.87
2018-04-07T08:34:05.000Z,25.72
2018-04-07T08:36:31.283Z,26.56
2018-04-07T08:38:57.597Z,27.22
2018-04-07T08:41:23.835Z,27.48
2018-04-07T08:43:50.069Z,26.82
2018-04-07T08:46:17.277Z,27.01
2018-04-07T08:48:43.569Z,27.43
2018-04-07T08:51:09.859Z,27.80
2018-04-07T08:53:36.166Z,27.71
2018-04-07T08:56:02.434Z,27.46
2018-04-07T08:58:28.688Z,27.15
2018-04-07T09:00:54.949Z,27.69
2018-04-07T09:03:21.218Z,28.34
2018-04-07T09:05:47.484Z,27.97
2018-04-07T09:08:13.766Z,28.36
2018-04-07T09:10:40.025Z,28.75
2018-04-07T09:13:06.341Z,29.06
2018-04-07T09:15:32.616Z,28.53
2018-04-07T09:17:58.967Z,28.49
2018-04-07T09:20:25.265Z,27.98
2018-04-07T09:22:51.588Z,27.86
2018-04-07T09:25:17.842Z,28.89
2018-04-07T09:27:44.117Z,28.63
2018-04-07T09:30:10.412Z,28.95
2018-04-07T09:32:36.677Z,29.19
2018-04-07T09:35:02.978Z,29.36
2018-04-07T09:37:29.269Z,29.04
2018-04-07T09:39:55.676Z,28.88
2018-04-07T09:42:21.948Z,29.33
2018-04-07T09:44:48.258Z,29.97
2018-04-07T09:47:14.557Z,29.96
2018-04-07T09:49:40.882Z,29.89
2018-04-07T09:52:07.191Z,29.46
2018-04-07T09:54:33.585Z,28.87
2018-04-07T09:56:59.941Z,28.95
2018-04-07T09:59:26.244Z,29.22
2018-04-07T10:01:52.514Z,28.78
2018-04-07T10:04:18.820Z,28.79
2018-04-07T10:06:45.097Z,29.18
2018-04-07T10:09:11.373Z,29.49
2018-04-07T10:11:37.688Z,29.39
2018-04-07T10:14:03.969Z,29.36
2018-04-07T10:16:30.257Z,28.82
2018-04-07T10:18:56.537Z,28.93
2018-04-07T10:21:22.891Z,29.19
2018-04-07T10:23:49.134Z,29.65
2018-04-07T10:26:15.417Z,30.36
2018-04-07T10:28:41.731Z,30.43
2018-04-07T10:31:08.007Z,30.59
2018-04-07T10:33:34.285Z,30.43
2018-04-07T10:36:00.616Z,30.44
2018-04-07T10:38:26.857Z,31.17
2018-04-07T10:40:53.092Z,31.32
2018-04-07T10:43:19.409Z,31.27
2018-04-07T10:45:45.649Z,31.46
2018-04-07T10:48:11.913Z,31.77
2018-04-07T10:50:38.186Z,31.78
2018-04-07T10:53:04.450Z,30.92
2018-04-07T10:55:30.719Z,31.98
2018-04-07T10:57:57.004Z,32.21
2018-04-07T11:00:23.288Z,32.17
2018-04-07T11:02:49.580Z,32.68
2018-04-07T11:05:15.860Z,33.16
2018-04-07T11:07:42.111Z,33.18
2018-04-07T11:10:08.381Z,33.45
2018-04-07T11:12:34.679Z,33.35
2018-04-07T11:15:00.942Z,33.26
2018-04-07T11:17:27.189Z,32.89
2018-04-07T11:19:53.469Z,33.52
2018-04-07T11:22:19.785Z,34.05
2018-04-07T11:24:46.017Z,34.26
2018-04-07T11:27:12.336Z,34.04
2018-04-07T11:29:38.621Z,34.46
2018-04-07T11:32:04.881Z,35.17
2018-04-07T11:34:31.171Z,34.94
2018-04-07T11:36:57.548Z,34.91
2018-04-07T11:39:23.822Z,34.96
2018-04-07T11:41:50.157Z,34.48
2018-04-07T11:44:16.432Z,34.51
2018-04-07T11:46:42.723Z,35.37
2018-04-07T11:49:08.998Z,35.80
2018-04-07T11:51:35.305Z,36.23
2018-04-07T11:54:01.689Z,36.46
2018-04-07T11:56:28.007Z,36.68
2018-04-07T11:58:54.270Z,36.48
2018-04-07T12:01:20.509Z,35.69
2018-04-07T12:03:46.836Z,36.55
2018-04-07T12:06:13.092Z,36.55
2018-04-07T12:08:39.342Z,36.75
2018-04-07T12:11:05.613Z,36.78
2018-04-07T12:13:31.901Z,36.45
2018-04-07T12:15:58.149Z,35.81
2018-04-07T12:18:24.437Z,36.03
2018-04-07T12:20:51.036Z,35.14
2018-04-07T12:23:17.273Z,35.00
2018-04-07T12:25:43.532Z,34.50
2018-04-07T12:28:09.780Z,34.40
2018-04-07T12:30:36.015Z,34.15
2018-04-07T12:33:02.312Z,34.35
2018-04-07T12:35:28.593Z,33.70
2018-04-07T12:37:54.824Z,34.19
2018-04-07T12:40:21.112Z,35.79
2018-04-07T12:42:47.453Z,35.85
2018-04-07T12:45:13.681Z,35.23
2018-04-07T12:47:39.941Z,34.93
2018-04-07T12:50:06.180Z,35.97
2018-04-07T12:52:32.605Z,36.49
2018-04-07T12:54:58.947Z,36.22
2018-04-07T12:57:25.172Z,36.01
2018-04-07T12:59:51.409Z,36.59
2018-04-07T13:02:17.676Z,35.86
2018-04-07T13:04:43.946Z,35.18
2018-04-07T13:07:10.169Z,35.24
2018-04-07T13:09:37.344Z,35.50
2018-04-07T13:12:03.644Z,35.30
2018-04-07T13:14:30.032Z,34.87
2018-04-07T13:16:56.345Z,34.76
2018-04-07T13:19:22.624Z,34.65
2018-04-07T13:21:48.885Z,34.48
2018-04-07T13:24:15.154Z,34.48
2018-04-07T13:26:41.513Z,34.34
2018-04-07T13:29:07.756Z,33.92
2018-04-07T13:31:34.021Z,34.16
2018-04-07T13:34:00.293Z,34.47
2018-04-07T13:36:26.552Z,34.63
2018-04-07T13:38:52.833Z,34.71
2018-04-07T13:41:19.125Z,34.84
2018-04-07T13:43:45.356Z,34.87
2018-04-07T13:46:11.620Z,35.14
2018-04-07T13:48:37.942Z,35.42
2018-04-07T13:51:04.196Z,35.48
2018-04-07T13:53:30.456Z,35.75
2018-04-07T13:55:56.685Z,36.19
2018-04-07T13:58:22.912Z,36.88
2018-04-07T14:00:49.236Z,37.49
2018-04-07T14:03:15.476Z,36.88
2018-04-07T14:05:41.726Z,37.32
2018-04-07T14:08:08.004Z,37.44
2018-04-07T14:10:34.241Z,36.67
2018-04-07T14:13:00.491Z,37.42
2018-04-07T14:15:26.762Z,37.09
2018-04-07T14:17:52.993Z,36.77
2018-04-07T14:20:19.224Z,36.76
2018-04-07T14:22:45.503Z,36.56
2018-04-07T14:25:11.824Z,36.22
2018-04-07T14:27:38.050Z,35.53
2018-04-07T14:30:04.344Z,35.23
2018-04-07T14:32:30.567Z,35.55
2018-04-07T14:34:56.805Z,35.10
2018-04-07T14:37:23.116Z,34.95
2018-04-07T14:39:49.351Z,35.63
2018-04-07T14:42:15.588Z,36.18
2018-04-07T14:44:41.856Z,36.03
2018-04-07T14:47:08.146Z,35.55
2018-04-07T14:49:34.387Z,35.26
2018-04-07T14:52:00.679Z,34.79
2018-04-07T14:54:26.926Z,34.63
2018-04-07T14:56:53.313Z,34.69
2018-04-07T14:59:19.592Z,34.00
2018-04-07T15:01:45.820Z,33.86
2018-04-07T15:04:12.097Z,34.64
2018-04-07T15:06:38.361Z,34.81
2018-04-07T15:09:05.512Z,34.66
2018-04-07T15:11:31.765Z,34.19
2018-04-07T15:13:58.048Z,34.19
2018-04-07T15:16:24.356Z,33.89
2018-04-07T15:18:50.628Z,34.15
2018-04-07T15:21:16.919Z,34.28
2018-04-07T15:23:43.209Z,33.93
2018-04-07T15:26:09.481Z,34.07
2018-04-07T15:28:35.757Z,33.81
2018-04-07T15:31:01.988Z,33.52
2018-04-07T15:33:28.216Z,33.24
2018-04-07T15:35:54.506Z,32.38
2018-04-07T15:38:20.822Z,32.30
2018-04-07T15:40:47.125Z,32.08
2018-04-07T15:43:13.414Z,31.78
2018-04-07T15:45:39.700Z,31.61
2018-04-07T15:48:05.949Z,30.75
2018-04-07T15:50:32.212Z,30.76
2018-04-07T15:52:58.519Z,30.53
2018-04-07T15:55:24.808Z,30.26
2018-04-07T15:57:51.088Z,29.96
2018-04-07T16:00:17.313Z,29.06
2018-04-07T16:02:43.539Z,28.21
2018-04-07T16:05:09.838Z,28.10
2018-04-07T16:07:36.104Z,27.80
2018-04-07T16:10:02.408Z,27.31
2018-04-07T16:12:28.683Z,26.39
2018-04-07T16:14:54.998Z,26.12
2018-04-07T16:17:21.281Z,25.73
2018-04-07T16:19:47.632Z,25.32
2018-04-07T16:22:13.866Z,24.99
2018-04-07T16:24:40.209Z,24.62
2018-04-07T16:27:06.619Z,24.33
2018-04-07T16:29:32.997Z,24.18
2018-04-07T16:31:59.281Z,23.95
2018-04-07T16:34:25.559Z,23.68
2018-04-07T16:36:51.836Z,23.40
2018-04-07T16:39:18.101Z,23.32
2018-04-07T16:41:44.411Z,23.25
2018-04-07T16:44:10.756Z,23.11
2018-04-07T16:46:37.049Z,22.97
2018-04-07T16:49:03.344Z,22.85
2018-04-07T16:51:29.677Z,22.62
2018-04-07T16:53:55.908Z,22.55
2018-04-07T16:56:22.181Z,22.51
2018-04-07T16:58:48.422Z,22.46
2018-04-07T17:01:14.666Z,22.36
2018-04-07T17:03:40.948Z,22.33
2018-04-07T17:06:07.196Z,22.27
2018-04-07T17:08:33.446Z,22.25
2018-04-07T17:10:59.728Z,22.24
2018-04-07T17:13:25.972Z,22.07
2018-04-07T17:15:52.212Z,21.98
2018-04-07T17:18:18.552Z,21.85
2018-04-07T17:20:51.714Z,21.84
2018-04-07T17:23:18.027Z,21.85
2018-04-07T17:25:44.298Z,21.80
2018-04-07T17:28:10.521Z,21.84
2018-04-07T17:30:36.892Z,21.85
2018-04-07T17:33:03.132Z,21.77
2018-04-07T17:35:29.409Z,21.69
2018-04-07T17:37:55.673Z,21.60
2018-04-07T17:40:21.913Z,21.42
2018-04-07T17:42:48.236Z,21.39
2018-04-07T17:45:14.507Z,21.33
2018-04-07T17:47:40.757Z,21.31
2018-04-07T17:50:07.042Z,21.23
2018-04-07T17:52:33.312Z,21.16
2018-04-07T17:54:59.569Z,21.07
2018-04-07T17:57:25.826Z,20.95
2018-04-07T17:59:52.163Z,20.80
2018-04-07T18:02:18.417Z,20.72
2018-04-07T18:04:44.752Z,20.69
2018-04-07T18:07:11.024Z,20.61
2018-04-07T18:09:37.315Z,20.66
2018-04-07T18:12:03.590Z,20.69
2018-04-07T18:14:29.871Z,20.55
2018-04-07T18:16:56.148Z,20.51
2018-04-07T18:19:22.422Z,20.43
2018-04-07T18:21:48.663Z,20.40
2018-04-07T18:24:14.899Z,20.30
2018-04-07T18:26:41.128Z,20.30
2018-04-07T18:29:07.525Z,20.34
2018-04-07T18:31:33.802Z,20.20
2018-04-07T18:34:00.094Z,20.12
2018-04-07T18:36:26.456Z,20.13
2018-04-07T18:38:52.741Z,20.03
2018-04-07T18:41:19.042Z,20.03
2018-04-07T18:43:45.303Z,19.97
2018-04-07T18:46:11.564Z,19.77
2018-04-07T18:48:37.796Z,19.77
2018-04-07T18:51:04.074Z,19.75
2018-04-07T18:53:30.349Z,19.76
2018-04-07T18:55:56.629Z,19.74
2018-04-07T18:58:22.960Z,19.65
2018-04-07T19:00:49.200Z,19.69
2018-04-07T19:03:15.489Z,19.64
2018-04-07T19:05:41.742Z,19.63
2018-04-07T19:08:08.045Z,19.60
2018-04-07T19:10:34.311Z,19.57
2018-04-07T19:13:00.570Z,19.54
2018-04-07T19:15:26.796Z,19.36
2018-04-07T19:17:53.037Z,19.27
2018-04-07T19:20:19.304Z,19.21
2018-04-07T19:22:45.540Z,19.19
2018-04-07T19:25:11.888Z,19.10
2018-04-07T19:27:38.148Z,19.07
2018-04-07T19:30:04.412Z,19.09
2018-04-07T19:32:30.674Z,19.12
2018-04-07T19:34:57.013Z,18.94
2018-04-07T19:37:23.252Z,18.87
2018-04-07T19:39:49.488Z,18.79
2018-04-07T19:42:15.760Z,18.75
2018-04-07T19:44:42.081Z,18.79
2018-04-07T19:47:08.314Z,18.72
2018-04-07T19:49:34.582Z,18.73
2018-04-07T19:52:00.849Z,18.77
2018-04-07T19:54:27.122Z,18.57
2018-04-07T19:56:53.468Z,18.48
2018-04-07T19:59:19.697Z,18.47
2018-04-07T20:01:45.943Z,18.33
2018-04-07T20:04:12.205Z,18.30
2018-04-07T20:06:39.170Z,18.17
2018-04-07T20:09:05.459Z,18.18
2018-04-07T20:11:31.748Z,18.18
2018-04-07T20:13:57.996Z,18.13
2018-04-07T20:16:24.234Z,18.08
2018-04-07T20:18:50.508Z,18.02
2018-04-07T20:21:16.766Z,17.98
2018-04-07T20:23:43.004Z,17.93
2018-04-07T20:26:09.381Z,17.88
2018-04-07T20:28:35.652Z,17.93
2018-04-07T20:31:01.900Z,17.84
2018-04-07T20:33:28.188Z,17.70
2018-04-07T20:35:54.629Z,17.54
2018-04-07T20:38:20.980Z,17.60
2018-04-07T20:40:55.386Z,17.58
2018-04-07T20:43:21.673Z,17.62
2018-04-07T20:45:48.065Z,17.56
2018-04-07T20:48:14.332Z,17.40
2018-04-07T20:50:40.585Z,17.53
2018-04-07T20:53:06.892Z,17.54
2018-04-07T20:55:33.161Z,17.60
2018-04-07T20:57:59.495Z,17.37
2018-04-07T21:00:25.800Z,17.38
2018-04-07T21:02:52.141Z,17.27
2018-04-07T21:05:18.460Z,17.17
2018-04-07T21:07:44.821Z,17.17
2018-04-07T21:10:11.126Z,17.15
2018-04-07T21:12:37.407Z,17.07
2018-04-07T21:15:03.699Z,17.07
2018-04-07T21:17:29.999Z,16.96
2018-04-07T21:19:56.249Z,16.95
2018-04-07T21:22:22.493Z,16.93
2018-04-07T21:24:48.772Z,16.98
2018-04-07T21:27:15.049Z,16.96
2018-04-07T21:29:41.305Z,16.95
2018-04-07T21:32:07.854Z,16.99
2018-04-07T21:34:34.093Z,16.94
2018-04-07T21:37:00.369Z,16.95
2018-04-07T21:39:26.655Z,17.00
2018-04-07T21:41:52.921Z,16.95
2018-04-07T21:44:19.196Z,16.94
2018-04-07T21:46:45.508Z,16.83
2018-04-07T21:49:11.766Z,16.66
2018-04-07T21:51:38.037Z,16.57
2018-04-07T21:54:04.332Z,16.53
2018-04-07T21:56:30.600Z,16.58
2018-04-07T21:58:56.875Z,16.47
2018-04-07T22:01:23.145Z,16.48
2018-04-07T22:03:49.401Z,16.33
2018-04-07T22:06:15.769Z,16.21
2018-04-07T22:08:42.096Z,16.25
2018-04-07T22:11:08.396Z,16.26
2018-04-07T22:13:34.682Z,16.21
2018-04-07T22:16:00.967Z,16.12
2018-04-07T22:18:27.233Z,16.10
2018-04-07T22:20:53.491Z,16.10
2018-04-07T22:23:19.820Z,16.08
2018-04-07T22:25:46.132Z,15.95
2018-04-07T22:28:12.416Z,16.12
2018-04-07T22:30:38.814Z,15.99
2018-04-07T22:33:05.114Z,16.05
2018-04-07T22:35:31.415Z,15.99
2018-04-07T22:37:57.772Z,15.98
2018-04-07T22:40:24.165Z,15.98
2018-04-07T22:42:50.440Z,16.05
2018-04-07T22:45:16.713Z,16.07
2018-04-07T22:47:42.968Z,15.93
2018-04-07T22:50:09.241Z,15.98
2018-04-07T22:52:35.533Z,16.02
2018-04-07T22:55:01.817Z,15.96
2018-04-07T22:57:28.061Z,15.92
2018-04-07T22:59:54.358Z,15.86
2018-04-07T23:02:20.613Z,15.82
2018-04-07T23:04:46.952Z,15.77
2018-04-07T23:07:13.238Z,15.79
2018-04-07T23:09:39.489Z,15.81
2018-04-07T23:12:05.732Z,15.82
2018-04-07T23:14:32.009Z,15.70
2018-04-07T23:16:58.263Z,15.66
2018-04-07T23:19:24.496Z,15.54
2018-04-07T23:21:50.809Z,15.54
2018-04-07T23:24:17.092Z,15.52
2018-04-07T23:26:43.352Z,15.43
2018-04-07T23:29:09.645Z,15.32
2018-04-07T23:31:35.884Z,15.29
2018-04-07T23:34:02.149Z,15.24
2018-04-07T23:36:28.441Z,15.08
2018-04-07T23:38:54.684Z,15.11
2018-04-07T23:41:20.942Z,15.03
2018-04-07T23:43:47.220Z,15.00
2018-04-07T23:46:13.461Z,15.11
2018-04-07T23:48:39.715Z,15.04
2018-04-07T23:51:06.029Z,14.93
2018-04-07T23:53:32.293Z,14.88
2018-04-07T23:55:58.567Z,14.98
2018-04-07T23:58:24.848Z,14.94
